sensor_id;sensor_type;location;lat;lon;timestamp;temperature;humidity
21246;DHT22;10781;50.928;4.440;2023-04-19T00:01:24;11.00;99.90
21246;DHT22;10781;50.928;4.440;2023-04-19T00:03:49;10.90;99.90
21246;DHT22;10781;50.928;4.440;2023-04-19T00:06:15;10.80;99.90
21246;DHT22;10781;50.928;4.440;2023-04-19T00:08:42;10.80;99.90
21246;DHT22;10781;50.928;4.440;2023-04-19T00:11:08;10.80;99.90
21246;DHT22;10781;50.928;4.440;2023-04-19T00:13:34;10.80;99.90
21246;DHT22;10781;50.928;4.440;2023-04-19T00:16:00;10.70;99.90
21246;DHT22;10781;50.928;4.440;2023-04-19T00:18:25;10.80;99.90
21246;DHT22;10781;50.928;4.440;2023-04-19T00:20:51;10.60;99.90
21246;DHT22;10781;50.928;4.440;2023-04-19T00:23:17;10.60;99.90
21246;DHT22;10781;50.928;4.440;2023-04-19T00:25:45;10.60;99.90
21246;DHT22;10781;50.928;4.440;2023-04-19T00:28:10;10.70;99.90
21246;DHT22;10781;50.928;4.440;2023-04-19T00:30:36;10.90;99.90
21246;DHT22;10781;50.928;4.440;2023-04-19T00:33:01;10.80;99.90
21246;DHT22;10781;50.928;4.440;2023-04-19T00:35:27;10.70;99.90
21246;DHT22;10781;50.928;4.440;2023-04-19T00:37:53;10.60;99.90
21246;DHT22;10781;50.928;4.440;2023-04-19T00:40:19;10.60;99.90
21246;DHT22;10781;50.928;4.440;2023-04-19T00:42:44;10.60;99.90
21246;DHT22;10781;50.928;4.440;2023-04-19T00:45:10;10.50;99.90
21246;DHT22;10781;50.928;4.440;2023-04-19T00:47:36;10.50;99.90
21246;DHT22;10781;50.928;4.440;2023-04-19T00:50:03;10.50;99.90
21246;DHT22;10781;50.928;4.440;2023-04-19T00:52:32;10.40;99.90
21246;DHT22;10781;50.928;4.440;2023-04-19T00:54:58;10.30;99.90
21246;DHT22;10781;50.928;4.440;2023-04-19T00:57:24;10.40;99.90
21246;DHT22;10781;50.928;4.440;2023-04-19T00:59:50;10.50;99.90
21246;DHT22;10781;50.928;4.440;2023-04-19T01:02:16;10.60;99.90
21246;DHT22;10781;50.928;4.440;2023-04-19T01:04:43;10.50;99.90
21246;DHT22;10781;50.928;4.440;2023-04-19T01:07:09;10.40;99.90
21246;DHT22;10781;50.928;4.440;2023-04-19T01:09:39;10.30;99.90
21246;DHT22;10781;50.928;4.440;2023-04-19T01:12:05;10.20;99.90
21246;DHT22;10781;50.928;4.440;2023-04-19T01:14:31;10.10;99.90
21246;DHT22;10781;50.928;4.440;2023-04-19T01:16:57;10.00;99.90
21246;DHT22;10781;50.928;4.440;2023-04-19T01:19:22;10.10;99.90
21246;DHT22;10781;50.928;4.440;2023-04-19T01:21:48;10.00;99.90
21246;DHT22;10781;50.928;4.440;2023-04-19T01:24:14;10.10;99.90
21246;DHT22;10781;50.928;4.440;2023-04-19T01:26:40;10.00;99.90
21246;DHT22;10781;50.928;4.440;2023-04-19T01:29:05;10.00;99.90
21246;DHT22;10781;50.928;4.440;2023-04-19T01:31:31;10.00;99.90
21246;DHT22;10781;50.928;4.440;2023-04-19T01:33:57;10.00;99.90
21246;DHT22;10781;50.928;4.440;2023-04-19T01:36:22;10.10;99.90
21246;DHT22;10781;50.928;4.440;2023-04-19T01:38:49;10.30;99.90
21246;DHT22;10781;50.928;4.440;2023-04-19T01:41:14;10.30;99.90
21246;DHT22;10781;50.928;4.440;2023-04-19T01:43:40;10.30;99.90
21246;DHT22;10781;50.928;4.440;2023-04-19T01:46:06;10.30;99.90
21246;DHT22;10781;50.928;4.440;2023-04-19T01:48:31;10.30;99.90
21246;DHT22;10781;50.928;4.440;2023-04-19T01:50:57;10.40;99.90
21246;DHT22;10781;50.928;4.440;2023-04-19T01:53:23;10.40;99.90
21246;DHT22;10781;50.928;4.440;2023-04-19T01:55:48;10.50;99.90
21246;DHT22;10781;50.928;4.440;2023-04-19T01:58:14;10.70;99.90
21246;DHT22;10781;50.928;4.440;2023-04-19T02:00:40;10.60;99.90
21246;DHT22;10781;50.928;4.440;2023-04-19T02:03:05;10.70;99.90
21246;DHT22;10781;50.928;4.440;2023-04-19T02:05:31;10.70;99.90
21246;DHT22;10781;50.928;4.440;2023-04-19T02:07:57;10.70;99.90
21246;DHT22;10781;50.928;4.440;2023-04-19T02:10:22;10.80;99.90
21246;DHT22;10781;50.928;4.440;2023-04-19T02:12:48;10.80;99.90
21246;DHT22;10781;50.928;4.440;2023-04-19T02:15:14;10.80;99.90
21246;DHT22;10781;50.928;4.440;2023-04-19T02:17:39;10.80;99.90
21246;DHT22;10781;50.928;4.440;2023-04-19T02:20:06;10.90;99.90
21246;DHT22;10781;50.928;4.440;2023-04-19T02:22:35;11.10;99.90
21246;DHT22;10781;50.928;4.440;2023-04-19T02:25:00;11.30;99.90
21246;DHT22;10781;50.928;4.440;2023-04-19T02:27:26;11.30;99.90
21246;DHT22;10781;50.928;4.440;2023-04-19T02:29:52;11.30;99.90
21246;DHT22;10781;50.928;4.440;2023-04-19T02:32:18;11.40;99.90
21246;DHT22;10781;50.928;4.440;2023-04-19T02:34:43;11.50;99.90
21246;DHT22;10781;50.928;4.440;2023-04-19T02:37:09;11.60;99.90
21246;DHT22;10781;50.928;4.440;2023-04-19T02:39:35;11.50;99.90
21246;DHT22;10781;50.928;4.440;2023-04-19T02:42:00;11.40;99.90
21246;DHT22;10781;50.928;4.440;2023-04-19T02:44:26;11.40;99.90
21246;DHT22;10781;50.928;4.440;2023-04-19T02:46:52;11.40;99.90
21246;DHT22;10781;50.928;4.440;2023-04-19T02:49:19;11.30;99.90
21246;DHT22;10781;50.928;4.440;2023-04-19T02:51:45;11.40;99.90
21246;DHT22;10781;50.928;4.440;2023-04-19T02:54:11;11.50;99.90
21246;DHT22;10781;50.928;4.440;2023-04-19T02:56:37;11.60;99.90
21246;DHT22;10781;50.928;4.440;2023-04-19T02:59:03;11.70;99.90
21246;DHT22;10781;50.928;4.440;2023-04-19T03:01:30;11.70;99.90
21246;DHT22;10781;50.928;4.440;2023-04-19T03:03:56;11.60;99.90
21246;DHT22;10781;50.928;4.440;2023-04-19T03:06:21;11.60;99.90
21246;DHT22;10781;50.928;4.440;2023-04-19T03:08:47;11.60;99.90
21246;DHT22;10781;50.928;4.440;2023-04-19T03:11:15;11.40;99.90
21246;DHT22;10781;50.928;4.440;2023-04-19T03:13:41;11.50;99.90
21246;DHT22;10781;50.928;4.440;2023-04-19T03:16:07;11.60;99.90
21246;DHT22;10781;50.928;4.440;2023-04-19T03:18:33;11.60;99.90
21246;DHT22;10781;50.928;4.440;2023-04-19T03:20:59;11.60;99.90
21246;DHT22;10781;50.928;4.440;2023-04-19T03:23:25;11.50;99.90
21246;DHT22;10781;50.928;4.440;2023-04-19T03:25:52;11.40;99.90
21246;DHT22;10781;50.928;4.440;2023-04-19T03:28:17;11.40;99.90
21246;DHT22;10781;50.928;4.440;2023-04-19T03:30:43;11.40;99.90
21246;DHT22;10781;50.928;4.440;2023-04-19T03:33:09;11.30;99.90
21246;DHT22;10781;50.928;4.440;2023-04-19T03:35:34;11.30;99.90
21246;DHT22;10781;50.928;4.440;2023-04-19T03:38:00;11.30;99.90
21246;DHT22;10781;50.928;4.440;2023-04-19T03:40:26;11.40;99.90
21246;DHT22;10781;50.928;4.440;2023-04-19T03:42:51;11.40;99.90
21246;DHT22;10781;50.928;4.440;2023-04-19T03:45:17;11.30;99.90
21246;DHT22;10781;50.928;4.440;2023-04-19T03:47:43;11.30;99.90
21246;DHT22;10781;50.928;4.440;2023-04-19T03:50:09;11.30;99.90
21246;DHT22;10781;50.928;4.440;2023-04-19T03:52:35;11.50;99.90
21246;DHT22;10781;50.928;4.440;2023-04-19T03:55:00;11.40;99.90
21246;DHT22;10781;50.928;4.440;2023-04-19T03:57:26;11.40;99.90
21246;DHT22;10781;50.928;4.440;2023-04-19T03:59:52;11.30;99.90
21246;DHT22;10781;50.928;4.440;2023-04-19T04:02:17;11.40;99.90
21246;DHT22;10781;50.928;4.440;2023-04-19T04:04:43;11.20;99.90
21246;DHT22;10781;50.928;4.440;2023-04-19T04:07:09;11.10;99.90
21246;DHT22;10781;50.928;4.440;2023-04-19T04:09:34;11.10;99.90
21246;DHT22;10781;50.928;4.440;2023-04-19T04:12:00;11.10;99.90
21246;DHT22;10781;50.928;4.440;2023-04-19T04:14:26;11.10;99.90
21246;DHT22;10781;50.928;4.440;2023-04-19T04:16:51;11.10;99.90
21246;DHT22;10781;50.928;4.440;2023-04-19T04:19:17;11.00;99.90
21246;DHT22;10781;50.928;4.440;2023-04-19T04:21:43;11.00;99.90
21246;DHT22;10781;50.928;4.440;2023-04-19T04:24:09;11.00;99.90
21246;DHT22;10781;50.928;4.440;2023-04-19T04:26:35;10.80;99.90
21246;DHT22;10781;50.928;4.440;2023-04-19T04:29:04;10.70;99.90
21246;DHT22;10781;50.928;4.440;2023-04-19T04:31:29;10.80;99.90
21246;DHT22;10781;50.928;4.440;2023-04-19T04:33:56;10.70;99.90
21246;DHT22;10781;50.928;4.440;2023-04-19T04:36:21;10.60;99.90
21246;DHT22;10781;50.928;4.440;2023-04-19T04:38:47;10.70;99.90
21246;DHT22;10781;50.928;4.440;2023-04-19T04:41:13;10.80;99.90
21246;DHT22;10781;50.928;4.440;2023-04-19T04:43:38;10.90;99.90
21246;DHT22;10781;50.928;4.440;2023-04-19T04:46:04;10.90;99.90
21246;DHT22;10781;50.928;4.440;2023-04-19T04:48:30;11.00;99.90
21246;DHT22;10781;50.928;4.440;2023-04-19T04:50:56;11.00;99.90
21246;DHT22;10781;50.928;4.440;2023-04-19T04:53:25;10.90;99.90
21246;DHT22;10781;50.928;4.440;2023-04-19T04:55:52;10.90;99.90
21246;DHT22;10781;50.928;4.440;2023-04-19T04:58:18;10.90;99.90
21246;DHT22;10781;50.928;4.440;2023-04-19T05:00:44;10.80;99.90
21246;DHT22;10781;50.928;4.440;2023-04-19T05:03:10;10.70;99.90
21246;DHT22;10781;50.928;4.440;2023-04-19T05:05:35;10.70;99.90
21246;DHT22;10781;50.928;4.440;2023-04-19T05:08:02;10.80;99.90
21246;DHT22;10781;50.928;4.440;2023-04-19T05:10:28;10.80;99.90
21246;DHT22;10781;50.928;4.440;2023-04-19T05:12:53;10.80;99.90
21246;DHT22;10781;50.928;4.440;2023-04-19T05:15:19;10.90;99.90
21246;DHT22;10781;50.928;4.440;2023-04-19T05:17:45;10.80;99.90
21246;DHT22;10781;50.928;4.440;2023-04-19T05:20:11;10.80;99.90
21246;DHT22;10781;50.928;4.440;2023-04-19T05:22:37;10.90;99.90
21246;DHT22;10781;50.928;4.440;2023-04-19T05:25:03;11.00;99.90
21246;DHT22;10781;50.928;4.440;2023-04-19T05:27:28;10.90;99.90
21246;DHT22;10781;50.928;4.440;2023-04-19T05:29:54;10.90;99.90
21246;DHT22;10781;50.928;4.440;2023-04-19T05:32:20;10.90;99.90
21246;DHT22;10781;50.928;4.440;2023-04-19T05:34:45;10.80;99.90
21246;DHT22;10781;50.928;4.440;2023-04-19T05:37:11;10.80;99.90
21246;DHT22;10781;50.928;4.440;2023-04-19T05:39:37;10.80;99.90
21246;DHT22;10781;50.928;4.440;2023-04-19T05:42:02;10.90;99.90
21246;DHT22;10781;50.928;4.440;2023-04-19T05:44:28;11.00;99.90
21246;DHT22;10781;50.928;4.440;2023-04-19T05:46:54;11.00;99.90
21246;DHT22;10781;50.928;4.440;2023-04-19T05:49:19;11.00;99.90
21246;DHT22;10781;50.928;4.440;2023-04-19T05:51:45;11.00;99.90
21246;DHT22;10781;50.928;4.440;2023-04-19T05:54:11;11.10;99.90
21246;DHT22;10781;50.928;4.440;2023-04-19T05:56:38;11.10;99.90
21246;DHT22;10781;50.928;4.440;2023-04-19T05:59:04;11.10;99.90
21246;DHT22;10781;50.928;4.440;2023-04-19T06:01:31;11.30;99.90
21246;DHT22;10781;50.928;4.440;2023-04-19T06:03:56;11.40;99.90
21246;DHT22;10781;50.928;4.440;2023-04-19T06:06:22;11.60;99.90
21246;DHT22;10781;50.928;4.440;2023-04-19T06:08:48;11.70;99.90
21246;DHT22;10781;50.928;4.440;2023-04-19T06:11:14;11.90;99.90
21246;DHT22;10781;50.928;4.440;2023-04-19T06:13:40;11.90;99.90
21246;DHT22;10781;50.928;4.440;2023-04-19T06:16:06;12.00;99.90
21246;DHT22;10781;50.928;4.440;2023-04-19T06:18:32;12.00;99.90
21246;DHT22;10781;50.928;4.440;2023-04-19T06:20:58;12.00;99.90
21246;DHT22;10781;50.928;4.440;2023-04-19T06:23:23;12.10;99.90
21246;DHT22;10781;50.928;4.440;2023-04-19T06:25:50;12.20;99.90
21246;DHT22;10781;50.928;4.440;2023-04-19T06:28:15;12.20;99.90
21246;DHT22;10781;50.928;4.440;2023-04-19T06:30:41;12.20;99.90
21246;DHT22;10781;50.928;4.440;2023-04-19T06:33:07;12.50;99.90
21246;DHT22;10781;50.928;4.440;2023-04-19T06:35:32;12.70;99.90
21246;DHT22;10781;50.928;4.440;2023-04-19T06:37:58;12.70;99.90
21246;DHT22;10781;50.928;4.440;2023-04-19T06:40:26;12.60;99.90
21246;DHT22;10781;50.928;4.440;2023-04-19T06:42:53;12.60;99.90
21246;DHT22;10781;50.928;4.440;2023-04-19T06:45:18;12.80;99.90
21246;DHT22;10781;50.928;4.440;2023-04-19T06:47:44;13.00;99.90
21246;DHT22;10781;50.928;4.440;2023-04-19T06:50:10;13.10;99.90
21246;DHT22;10781;50.928;4.440;2023-04-19T06:52:36;13.40;99.90
21246;DHT22;10781;50.928;4.440;2023-04-19T06:55:02;13.60;99.90
21246;DHT22;10781;50.928;4.440;2023-04-19T06:57:28;13.70;99.90
21246;DHT22;10781;50.928;4.440;2023-04-19T06:59:54;13.60;99.90
21246;DHT22;10781;50.928;4.440;2023-04-19T07:02:19;13.80;99.90
21246;DHT22;10781;50.928;4.440;2023-04-19T07:04:45;13.80;99.90
21246;DHT22;10781;50.928;4.440;2023-04-19T07:07:12;13.70;99.90
21246;DHT22;10781;50.928;4.440;2023-04-19T07:09:38;13.80;99.90
21246;DHT22;10781;50.928;4.440;2023-04-19T07:12:05;13.70;99.90
21246;DHT22;10781;50.928;4.440;2023-04-19T07:14:31;13.80;99.90
21246;DHT22;10781;50.928;4.440;2023-04-19T07:16:56;13.80;99.90
21246;DHT22;10781;50.928;4.440;2023-04-19T07:19:22;13.90;99.90
21246;DHT22;10781;50.928;4.440;2023-04-19T07:21:48;14.20;99.90
21246;DHT22;10781;50.928;4.440;2023-04-19T07:24:14;14.40;99.90
21246;DHT22;10781;50.928;4.440;2023-04-19T07:26:40;14.40;99.90
21246;DHT22;10781;50.928;4.440;2023-04-19T07:29:06;14.40;99.90
21246;DHT22;10781;50.928;4.440;2023-04-19T07:31:31;14.30;99.90
21246;DHT22;10781;50.928;4.440;2023-04-19T07:33:57;14.00;99.90
21246;DHT22;10781;50.928;4.440;2023-04-19T07:36:23;13.90;99.90
21246;DHT22;10781;50.928;4.440;2023-04-19T07:38:48;14.00;99.90
21246;DHT22;10781;50.928;4.440;2023-04-19T07:41:14;14.20;99.90
21246;DHT22;10781;50.928;4.440;2023-04-19T07:43:40;15.20;99.90
21246;DHT22;10781;50.928;4.440;2023-04-19T07:46:13;15.50;99.90
21246;DHT22;10781;50.928;4.440;2023-04-19T07:48:41;15.70;99.90
21246;DHT22;10781;50.928;4.440;2023-04-19T07:51:14;15.80;99.90
21246;DHT22;10781;50.928;4.440;2023-04-19T07:53:41;16.40;99.90
21246;DHT22;10781;50.928;4.440;2023-04-19T07:56:08;16.90;99.90
21246;DHT22;10781;50.928;4.440;2023-04-19T07:58:34;18.10;99.90
21246;DHT22;10781;50.928;4.440;2023-04-19T08:01:00;19.00;99.90
21246;DHT22;10781;50.928;4.440;2023-04-19T08:03:26;20.30;99.90
21246;DHT22;10781;50.928;4.440;2023-04-19T08:05:52;20.70;99.90
21246;DHT22;10781;50.928;4.440;2023-04-19T08:08:18;21.30;99.90
21246;DHT22;10781;50.928;4.440;2023-04-19T08:10:44;21.00;99.90
21246;DHT22;10781;50.928;4.440;2023-04-19T08:13:10;20.80;99.90
21246;DHT22;10781;50.928;4.440;2023-04-19T08:15:36;21.20;99.90
21246;DHT22;10781;50.928;4.440;2023-04-19T08:18:02;20.50;99.90
21246;DHT22;10781;50.928;4.440;2023-04-19T08:20:30;20.00;99.90
21246;DHT22;10781;50.928;4.440;2023-04-19T08:22:58;20.50;99.90
21246;DHT22;10781;50.928;4.440;2023-04-19T08:25:24;20.50;99.90
21246;DHT22;10781;50.928;4.440;2023-04-19T08:27:53;20.70;99.90
21246;DHT22;10781;50.928;4.440;2023-04-19T08:30:19;19.90;99.90
21246;DHT22;10781;50.928;4.440;2023-04-19T08:32:45;20.80;99.90
21246;DHT22;10781;50.928;4.440;2023-04-19T08:35:11;22.10;99.90
21246;DHT22;10781;50.928;4.440;2023-04-19T08:37:37;23.20;99.90
21246;DHT22;10781;50.928;4.440;2023-04-19T08:40:04;23.50;99.90
21246;DHT22;10781;50.928;4.440;2023-04-19T08:42:31;23.10;99.90
21246;DHT22;10781;50.928;4.440;2023-04-19T08:45:00;23.00;99.90
21246;DHT22;10781;50.928;4.440;2023-04-19T08:47:27;23.50;99.90
21246;DHT22;10781;50.928;4.440;2023-04-19T08:49:55;23.30;99.90
21246;DHT22;10781;50.928;4.440;2023-04-19T08:52:23;23.40;99.90
21246;DHT22;10781;50.928;4.440;2023-04-19T08:54:49;22.90;99.90
21246;DHT22;10781;50.928;4.440;2023-04-19T08:57:16;24.30;99.90
21246;DHT22;10781;50.928;4.440;2023-04-19T08:59:41;26.60;99.90
21246;DHT22;10781;50.928;4.440;2023-04-19T09:02:10;25.50;99.90
21246;DHT22;10781;50.928;4.440;2023-04-19T09:04:35;26.30;99.30
21246;DHT22;10781;50.928;4.440;2023-04-19T09:07:01;25.90;97.80
21246;DHT22;10781;50.928;4.440;2023-04-19T09:09:30;25.50;98.30
21246;DHT22;10781;50.928;4.440;2023-04-19T09:11:56;26.00;96.60
21246;DHT22;10781;50.928;4.440;2023-04-19T09:14:26;24.60;97.20
21246;DHT22;10781;50.928;4.440;2023-04-19T09:16:51;24.30;97.50
21246;DHT22;10781;50.928;4.440;2023-04-19T09:19:17;24.50;97.30
21246;DHT22;10781;50.928;4.440;2023-04-19T09:21:43;25.20;95.30
21246;DHT22;10781;50.928;4.440;2023-04-19T09:24:09;25.30;95.20
21246;DHT22;10781;50.928;4.440;2023-04-19T09:26:35;25.90;94.40
21246;DHT22;10781;50.928;4.440;2023-04-19T09:29:05;25.60;92.90
21246;DHT22;10781;50.928;4.440;2023-04-19T09:31:35;26.80;93.20
21246;DHT22;10781;50.928;4.440;2023-04-19T09:34:30;27.30;90.20
21246;DHT22;10781;50.928;4.440;2023-04-19T09:36:56;26.80;89.50
21246;DHT22;10781;50.928;4.440;2023-04-19T09:39:31;25.30;91.00
21246;DHT22;10781;50.928;4.440;2023-04-19T09:42:01;25.20;91.60
21246;DHT22;10781;50.928;4.440;2023-04-19T09:44:57;24.80;91.20
21246;DHT22;10781;50.928;4.440;2023-04-19T09:47:24;25.90;90.70
21246;DHT22;10781;50.928;4.440;2023-04-19T09:50:04;27.10;86.20
21246;DHT22;10781;50.928;4.440;2023-04-19T09:52:32;26.80;86.30
21246;DHT22;10781;50.928;4.440;2023-04-19T09:55:04;26.80;85.90
21246;DHT22;10781;50.928;4.440;2023-04-19T09:57:32;26.60;84.90
21246;DHT22;10781;50.928;4.440;2023-04-19T09:59:59;27.40;85.80
21246;DHT22;10781;50.928;4.440;2023-04-19T10:02:32;27.70;83.60
21246;DHT22;10781;50.928;4.440;2023-04-19T10:04:58;27.20;82.40
21246;DHT22;10781;50.928;4.440;2023-04-19T10:07:26;28.10;78.20
21246;DHT22;10781;50.928;4.440;2023-04-19T10:09:54;28.80;78.30
21246;DHT22;10781;50.928;4.440;2023-04-19T10:12:25;29.50;74.60
21246;DHT22;10781;50.928;4.440;2023-04-19T10:14:53;29.10;74.80
21246;DHT22;10781;50.928;4.440;2023-04-19T10:17:21;28.50;73.60
21246;DHT22;10781;50.928;4.440;2023-04-19T10:19:50;30.10;73.30
21246;DHT22;10781;50.928;4.440;2023-04-19T10:22:16;28.90;72.00
21246;DHT22;10781;50.928;4.440;2023-04-19T10:27:37;28.20;72.10
21246;DHT22;10781;50.928;4.440;2023-04-19T10:30:04;28.70;72.50
21246;DHT22;10781;50.928;4.440;2023-04-19T10:32:43;28.70;69.50
21246;DHT22;10781;50.928;4.440;2023-04-19T10:38:10;28.10;71.80
21246;DHT22;10781;50.928;4.440;2023-04-19T10:40:57;27.00;74.30
21246;DHT22;10781;50.928;4.440;2023-04-19T10:46:02;28.80;68.60
21246;DHT22;10781;50.928;4.440;2023-04-19T10:48:31;29.30;70.00
21246;DHT22;10781;50.928;4.440;2023-04-19T10:51:02;27.00;69.10
21246;DHT22;10781;50.928;4.440;2023-04-19T10:53:52;26.60;70.60
21246;DHT22;10781;50.928;4.440;2023-04-19T10:56:21;24.90;73.70
21246;DHT22;10781;50.928;4.440;2023-04-19T10:59:13;23.70;77.80
21246;DHT22;10781;50.928;4.440;2023-04-19T11:04:18;22.40;83.90
21246;DHT22;10781;50.928;4.440;2023-04-19T11:09:35;22.30;83.00
21246;DHT22;10781;50.928;4.440;2023-04-19T11:12:05;21.50;83.50
21246;DHT22;10781;50.928;4.440;2023-04-19T11:14:38;22.30;84.30
21246;DHT22;10781;50.928;4.440;2023-04-19T11:17:17;22.80;84.00
21246;DHT22;10781;50.928;4.440;2023-04-19T11:22:23;25.50;77.40
21246;DHT22;10781;50.928;4.440;2023-04-19T11:24:48;27.40;71.30
21246;DHT22;10781;50.928;4.440;2023-04-19T11:27:14;27.00;70.50
21246;DHT22;10781;50.928;4.440;2023-04-19T11:29:40;25.80;71.30
21246;DHT22;10781;50.928;4.440;2023-04-19T11:32:05;25.00;73.70
21246;DHT22;10781;50.928;4.440;2023-04-19T11:34:50;26.20;75.10
21246;DHT22;10781;50.928;4.440;2023-04-19T11:37:16;27.60;69.50
21246;DHT22;10781;50.928;4.440;2023-04-19T11:39:46;27.80;67.80
21246;DHT22;10781;50.928;4.440;2023-04-19T11:42:19;27.30;66.70
21246;DHT22;10781;50.928;4.440;2023-04-19T11:44:51;27.20;64.70
21246;DHT22;10781;50.928;4.440;2023-04-19T11:47:18;25.90;67.70
21246;DHT22;10781;50.928;4.440;2023-04-19T11:49:47;24.40;70.70
21246;DHT22;10781;50.928;4.440;2023-04-19T11:52:22;25.60;69.10
21246;DHT22;10781;50.928;4.440;2023-04-19T11:54:50;26.60;66.50
21246;DHT22;10781;50.928;4.440;2023-04-19T11:57:26;26.90;63.10
21246;DHT22;10781;50.928;4.440;2023-04-19T12:00:04;26.10;64.90
21246;DHT22;10781;50.928;4.440;2023-04-19T12:02:42;26.20;65.70
21246;DHT22;10781;50.928;4.440;2023-04-19T12:05:13;27.20;65.30
21246;DHT22;10781;50.928;4.440;2023-04-19T12:08:03;27.80;62.00
21246;DHT22;10781;50.928;4.440;2023-04-19T12:10:30;29.80;59.40
21246;DHT22;10781;50.928;4.440;2023-04-19T12:12:56;29.20;56.70
21246;DHT22;10781;50.928;4.440;2023-04-19T12:15:22;28.90;58.00
21246;DHT22;10781;50.928;4.440;2023-04-19T12:18:01;27.70;57.90
21246;DHT22;10781;50.928;4.440;2023-04-19T12:20:37;27.70;58.40
21246;DHT22;10781;50.928;4.440;2023-04-19T12:23:03;27.80;58.10
21246;DHT22;10781;50.928;4.440;2023-04-19T12:25:30;28.30;55.30
21246;DHT22;10781;50.928;4.440;2023-04-19T12:27:56;26.20;57.20
21246;DHT22;10781;50.928;4.440;2023-04-19T12:30:21;26.40;57.60
21246;DHT22;10781;50.928;4.440;2023-04-19T12:32:47;26.80;56.90
21246;DHT22;10781;50.928;4.440;2023-04-19T12:35:13;27.60;54.20
21246;DHT22;10781;50.928;4.440;2023-04-19T12:37:38;27.30;53.80
21246;DHT22;10781;50.928;4.440;2023-04-19T12:40:05;27.60;54.60
21246;DHT22;10781;50.928;4.440;2023-04-19T12:42:30;28.10;53.40
21246;DHT22;10781;50.928;4.440;2023-04-19T12:44:56;27.80;52.40
21246;DHT22;10781;50.928;4.440;2023-04-19T12:47:22;28.30;52.40
21246;DHT22;10781;50.928;4.440;2023-04-19T12:49:47;28.00;50.80
21246;DHT22;10781;50.928;4.440;2023-04-19T12:52:13;27.70;50.40
21246;DHT22;10781;50.928;4.440;2023-04-19T12:54:39;27.60;50.70
21246;DHT22;10781;50.928;4.440;2023-04-19T12:57:05;26.70;50.00
21246;DHT22;10781;50.928;4.440;2023-04-19T12:59:31;25.80;50.70
21246;DHT22;10781;50.928;4.440;2023-04-19T13:01:56;26.30;50.90
21246;DHT22;10781;50.928;4.440;2023-04-19T13:04:22;25.80;50.30
21246;DHT22;10781;50.928;4.440;2023-04-19T13:06:48;26.20;51.30
21246;DHT22;10781;50.928;4.440;2023-04-19T13:09:14;25.60;49.70
21246;DHT22;10781;50.928;4.440;2023-04-19T13:11:40;25.60;50.30
21246;DHT22;10781;50.928;4.440;2023-04-19T13:14:06;26.30;50.90
21246;DHT22;10781;50.928;4.440;2023-04-19T13:16:31;26.00;48.80
21246;DHT22;10781;50.928;4.440;2023-04-19T13:18:57;26.30;46.70
21246;DHT22;10781;50.928;4.440;2023-04-19T13:21:23;26.90;46.70
21246;DHT22;10781;50.928;4.440;2023-04-19T13:23:48;27.60;46.30
21246;DHT22;10781;50.928;4.440;2023-04-19T13:26:15;28.30;46.80
21246;DHT22;10781;50.928;4.440;2023-04-19T13:28:43;27.60;44.40
21246;DHT22;10781;50.928;4.440;2023-04-19T13:31:09;26.50;44.90
21246;DHT22;10781;50.928;4.440;2023-04-19T13:33:35;27.10;43.60
21246;DHT22;10781;50.928;4.440;2023-04-19T13:36:01;28.40;43.40
21246;DHT22;10781;50.928;4.440;2023-04-19T13:38:27;27.80;42.20
21246;DHT22;10781;50.928;4.440;2023-04-19T13:40:52;28.70;43.60
21246;DHT22;10781;50.928;4.440;2023-04-19T13:43:18;28.30;41.40
21246;DHT22;10781;50.928;4.440;2023-04-19T13:45:44;27.90;41.60
21246;DHT22;10781;50.928;4.440;2023-04-19T13:48:10;27.20;42.50
21246;DHT22;10781;50.928;4.440;2023-04-19T13:50:38;27.70;41.90
21246;DHT22;10781;50.928;4.440;2023-04-19T13:53:04;26.80;40.50
21246;DHT22;10781;50.928;4.440;2023-04-19T13:55:31;26.70;43.20
21246;DHT22;10781;50.928;4.440;2023-04-19T13:58:01;26.00;40.50
21246;DHT22;10781;50.928;4.440;2023-04-19T14:00:27;25.30;42.30
21246;DHT22;10781;50.928;4.440;2023-04-19T14:02:53;25.20;43.60
21246;DHT22;10781;50.928;4.440;2023-04-19T14:05:20;25.30;42.90
21246;DHT22;10781;50.928;4.440;2023-04-19T14:07:45;25.30;42.50
21246;DHT22;10781;50.928;4.440;2023-04-19T14:10:11;25.20;43.00
21246;DHT22;10781;50.928;4.440;2023-04-19T14:12:37;25.30;43.30
21246;DHT22;10781;50.928;4.440;2023-04-19T14:15:04;25.80;42.00
21246;DHT22;10781;50.928;4.440;2023-04-19T14:17:34;25.30;40.30
21246;DHT22;10781;50.928;4.440;2023-04-19T14:20:00;24.90;42.10
21246;DHT22;10781;50.928;4.440;2023-04-19T14:22:25;24.80;43.90
21246;DHT22;10781;50.928;4.440;2023-04-19T14:24:51;24.60;42.40
21246;DHT22;10781;50.928;4.440;2023-04-19T14:27:17;24.50;45.00
21246;DHT22;10781;50.928;4.440;2023-04-19T14:29:44;24.50;42.90
21246;DHT22;10781;50.928;4.440;2023-04-19T14:32:09;24.50;41.80
21246;DHT22;10781;50.928;4.440;2023-04-19T14:34:35;24.10;41.50
21246;DHT22;10781;50.928;4.440;2023-04-19T14:37:01;23.70;43.00
21246;DHT22;10781;50.928;4.440;2023-04-19T14:39:27;23.90;41.20
21246;DHT22;10781;50.928;4.440;2023-04-19T14:41:52;23.50;41.90
21246;DHT22;10781;50.928;4.440;2023-04-19T14:44:18;23.20;42.70
21246;DHT22;10781;50.928;4.440;2023-04-19T14:46:44;23.70;42.60
21246;DHT22;10781;50.928;4.440;2023-04-19T14:49:09;23.60;42.10
21246;DHT22;10781;50.928;4.440;2023-04-19T14:51:35;24.60;43.40
21246;DHT22;10781;50.928;4.440;2023-04-19T14:54:00;24.30;41.80
21246;DHT22;10781;50.928;4.440;2023-04-19T14:56:26;24.10;41.20
21246;DHT22;10781;50.928;4.440;2023-04-19T14:58:52;24.10;41.00
21246;DHT22;10781;50.928;4.440;2023-04-19T15:01:20;24.30;41.40
21246;DHT22;10781;50.928;4.440;2023-04-19T15:03:48;24.20;41.60
21246;DHT22;10781;50.928;4.440;2023-04-19T15:06:13;23.80;41.10
21246;DHT22;10781;50.928;4.440;2023-04-19T15:08:39;23.70;42.80
21246;DHT22;10781;50.928;4.440;2023-04-19T15:11:07;23.60;42.10
21246;DHT22;10781;50.928;4.440;2023-04-19T15:13:33;22.50;42.00
21246;DHT22;10781;50.928;4.440;2023-04-19T15:16:00;22.80;43.20
21246;DHT22;10781;50.928;4.440;2023-04-19T15:18:26;22.40;40.80
21246;DHT22;10781;50.928;4.440;2023-04-19T15:20:52;22.30;41.20
21246;DHT22;10781;50.928;4.440;2023-04-19T15:23:22;21.80;42.20
21246;DHT22;10781;50.928;4.440;2023-04-19T15:25:48;21.90;41.00
21246;DHT22;10781;50.928;4.440;2023-04-19T15:28:14;22.70;40.80
21246;DHT22;10781;50.928;4.440;2023-04-19T15:30:40;23.00;40.00
21246;DHT22;10781;50.928;4.440;2023-04-19T15:33:05;22.10;41.30
21246;DHT22;10781;50.928;4.440;2023-04-19T15:35:31;22.60;41.20
21246;DHT22;10781;50.928;4.440;2023-04-19T15:37:57;22.80;39.90
21246;DHT22;10781;50.928;4.440;2023-04-19T15:40:23;22.20;39.80
21246;DHT22;10781;50.928;4.440;2023-04-19T15:42:53;21.80;41.50
21246;DHT22;10781;50.928;4.440;2023-04-19T15:45:20;21.70;41.50